Time;durP1;ratioP1;P1;durP2;ratioP2;P2;SDS_P1;SDS_P2;PMS_P1;PMS_P2;Temp;Humidity;BMP_temperature;BMP_pressure;BME280_temperature;BME280_humidity;BME280_pressure;Samples;Min_cycle;Max_cycle;Signal;HPM_P1;HPM_P2
2024/02/29 00:00:24;;;;;;;15.60;12.13;;;6.30;99.90;;;;;;2064125;28;20023;-71
2024/02/29 00:01:25;;;;;;;17.00;11.32;;;6.30;99.90;;;;;;2072281;28;20084;-71
2024/02/29 00:02:25;;;;;;;15.05;11.82;;;6.20;99.90;;;;;;2071122;28;20021;-72
2024/02/29 00:03:26;;;;;;;13.93;10.10;;;6.20;99.90;;;;;;2068457;28;20029;-71
2024/02/29 00:04:31;;;;;;;16.92;11.40;;;6.20;99.90;;;;;;2068112;28;20037;-72
2024/02/29 00:05:31;;;;;;;17.38;11.50;;;6.20;99.90;;;;;;2069201;28;20057;-71
2024/02/29 00:06:32;;;;;;;17.08;11.77;;;6.20;99.90;;;;;;2068994;28;20410;-72
2024/02/29 00:07:32;;;;;;;17.23;12.15;;;6.20;99.90;;;;;;2069647;28;20026;-72
2024/02/29 00:08:33;;;;;;;16.42;11.98;;;6.20;99.90;;;;;;2069665;28;20070;-71
2024/02/29 00:09:35;;;;;;;17.27;12.00;;;6.10;99.90;;;;;;2069118;28;20038;-72
2024/02/29 00:10:36;;;;;;;18.77;11.52;;;6.10;99.90;;;;;;2067410;28;20110;-72
2024/02/29 00:11:36;;;;;;;17.40;11.77;;;6.10;99.90;;;;;;2069298;28;20029;-72
2024/02/29 00:12:38;;;;;;;15.80;11.15;;;6.10;99.90;;;;;;2067164;28;20054;-72
2024/02/29 00:13:39;;;;;;;15.38;11.50;;;6.10;99.90;;;;;;2067380;28;20621;-72
2024/02/29 00:14:39;;;;;;;16.10;11.90;;;6.10;99.90;;;;;;2067914;28;20359;-72
2024/02/29 00:15:40;;;;;;;19.00;12.32;;;6.10;99.90;;;;;;2067530;28;20371;-71
2024/02/29 00:16:43;;;;;;;14.13;11.25;;;6.10;99.90;;;;;;2069776;28;20049;-71
2024/02/29 00:17:43;;;;;;;14.57;11.73;;;6.10;99.90;;;;;;2069168;28;20030;-72
2024/02/29 00:18:45;;;;;;;16.98;12.02;;;6.10;99.90;;;;;;2069637;28;20120;-71
2024/02/29 00:19:46;;;;;;;16.95;11.90;;;6.10;99.90;;;;;;2066611;28;20046;-71
2024/02/29 00:20:46;;;;;;;15.88;11.20;;;6.10;99.90;;;;;;2069751;28;20053;-72
2024/02/29 00:21:47;;;;;;;15.88;11.70;;;6.10;99.90;;;;;;2067456;28;20176;-72
2024/02/29 00:22:47;;;;;;;15.05;11.00;;;6.10;99.90;;;;;;2069804;28;20030;-71
2024/02/29 00:23:48;;;;;;;16.77;11.55;;;6.10;99.90;;;;;;2068089;28;20109;-72
2024/02/29 00:24:48;;;;;;;15.38;11.35;;;6.10;99.90;;;;;;2066936;28;20026;-71
2024/02/29 00:25:49;;;;;;;20.52;12.80;;;6.00;99.90;;;;;;2069047;28;20177;-72
2024/02/29 00:26:49;;;;;;;15.45;11.82;;;6.10;99.90;;;;;;2067268;28;20702;-72
2024/02/29 00:27:50;;;;;;;17.42;11.98;;;6.00;99.90;;;;;;2057691;28;20046;-72
2024/02/29 00:28:51;;;;;;;17.02;11.13;;;6.00;99.90;;;;;;2059115;28;20085;-72
2024/02/29 00:29:51;;;;;;;18.23;11.27;;;6.00;99.90;;;;;;2067762;28;20068;-71
2024/02/29 00:30:52;;;;;;;17.33;11.10;;;5.90;99.90;;;;;;2068752;28;20052;-71
2024/02/29 00:31:53;;;;;;;17.08;12.05;;;5.90;99.90;;;;;;2063093;28;20117;-72
2024/02/29 00:32:55;;;;;;;15.38;11.10;;;5.90;99.90;;;;;;2064525;28;20030;-72
2024/02/29 00:33:55;;;;;;;14.70;10.45;;;5.90;99.90;;;;;;2069171;28;20141;-72
2024/02/29 00:34:56;;;;;;;17.75;11.40;;;5.90;99.90;;;;;;2069059;28;20034;-72
2024/02/29 00:35:57;;;;;;;18.38;11.43;;;5.90;99.90;;;;;;2068172;28;20089;-71
2024/02/29 00:36:58;;;;;;;15.82;11.55;;;5.90;99.90;;;;;;2069634;28;20030;-71
2024/02/29 00:37:58;;;;;;;17.35;10.75;;;5.90;99.90;;;;;;2068187;28;20021;-71
2024/02/29 00:38:59;;;;;;;17.33;11.00;;;5.90;99.90;;;;;;2069415;28;20081;-72
2024/02/29 00:39:59;;;;;;;17.55;11.73;;;5.90;99.90;;;;;;2067963;28;20024;-72
2024/02/29 00:41:00;;;;;;;14.55;11.15;;;5.90;99.90;;;;;;2069227;28;20054;-71
2024/02/29 00:42:01;;;;;;;15.70;11.57;;;5.80;99.90;;;;;;2068310;28;20092;-72
2024/02/29 00:43:01;;;;;;;18.00;11.88;;;5.80;99.90;;;;;;2068775;28;20150;-72
2024/02/29 00:44:14;;;;;;;17.88;11.98;;;5.80;99.90;;;;;;2068498;28;20042;-73
2024/02/29 00:45:15;;;;;;;15.73;11.25;;;5.80;99.90;;;;;;2069097;28;20538;-72
2024/02/29 00:46:15;;;;;;;16.33;11.85;;;5.80;99.90;;;;;;2069086;28;20340;-72
2024/02/29 00:47:16;;;;;;;16.60;11.63;;;5.80;99.90;;;;;;2068283;28;20485;-72
2024/02/29 00:48:16;;;;;;;16.05;10.88;;;5.80;99.90;;;;;;2062924;28;20034;-72
2024/02/29 00:49:17;;;;;;;17.67;11.90;;;5.80;99.90;;;;;;2057303;28;20094;-72
2024/02/29 00:50:17;;;;;;;17.90;12.05;;;5.70;99.90;;;;;;2060833;28;20027;-72
2024/02/29 00:51:19;;;;;;;15.40;11.50;;;5.80;99.90;;;;;;2069602;28;20352;-72
2024/02/29 00:52:19;;;;;;;19.77;11.70;;;5.70;99.90;;;;;;2068161;28;20034;-71
2024/02/29 00:53:20;;;;;;;16.15;11.68;;;5.80;99.90;;;;;;2068703;28;20053;-72
2024/02/29 00:54:24;;;;;;;18.02;11.85;;;5.80;99.90;;;;;;2066886;28;20026;-72
2024/02/29 00:55:25;;;;;;;15.05;11.18;;;5.80;99.90;;;;;;2069468;28;20034;-72
2024/02/29 00:56:25;;;;;;;15.98;10.68;;;5.80;99.90;;;;;;2069727;28;20037;-72
2024/02/29 00:57:26;;;;;;;14.32;10.68;;;5.80;99.90;;;;;;2068348;28;20470;-72
2024/02/29 00:58:26;;;;;;;16.45;11.68;;;5.80;99.90;;;;;;2067349;28;20029;-72
2024/02/29 00:59:27;;;;;;;14.30;10.35;;;5.80;99.90;;;;;;2066082;28;20097;-72
2024/02/29 01:00:27;;;;;;;15.77;10.52;;;5.90;99.90;;;;;;2067433;28;20046;-72
2024/02/29 01:01:28;;;;;;;15.73;10.80;;;5.80;99.90;;;;;;2067891;28;20527;-72
2024/02/29 01:02:28;;;;;;;15.05;10.90;;;5.90;99.90;;;;;;2068412;28;20038;-72
2024/02/29 01:03:29;;;;;;;14.43;10.20;;;5.90;99.90;;;;;;2067971;28;20054;-70
2024/02/29 01:04:29;;;;;;;14.63;10.85;;;5.90;99.90;;;;;;2068005;28;20034;-71
2024/02/29 01:05:30;;;;;;;15.25;10.90;;;5.90;99.90;;;;;;2069021;28;20022;-72
2024/02/29 01:06:31;;;;;;;17.65;11.40;;;5.90;99.90;;;;;;2068595;28;20033;-72
2024/02/29 01:07:31;;;;;;;15.27;10.93;;;5.90;99.90;;;;;;2068137;28;20767;-72
2024/02/29 01:08:32;;;;;;;15.40;11.18;;;5.90;99.90;;;;;;2069377;28;20049;-73
2024/02/29 01:09:32;;;;;;;15.45;11.07;;;5.90;99.90;;;;;;2071218;28;20030;-72
2024/02/29 01:10:33;;;;;;;15.65;10.65;;;5.90;99.90;;;;;;2068611;28;20125;-72
2024/02/29 01:11:33;;;;;;;16.00;10.48;;;6.00;99.90;;;;;;2067911;28;20034;-71
2024/02/29 01:12:39;;;;;;;16.17;10.15;;;6.00;99.90;;;;;;2067579;28;20019;-72
2024/02/29 01:13:39;;;;;;;16.00;10.75;;;6.00;99.90;;;;;;2067571;28;20025;-72
2024/02/29 01:14:40;;;;;;;13.60;9.85;;;6.00;99.90;;;;;;2066679;28;20021;-72
2024/02/29 01:15:40;;;;;;;14.70;10.73;;;6.00;99.90;;;;;;2071143;28;20105;-72
2024/02/29 01:16:41;;;;;;;15.38;10.05;;;6.00;99.90;;;;;;2062206;28;20051;-72
2024/02/29 01:17:43;;;;;;;14.63;9.95;;;6.00;99.90;;;;;;2064462;28;20036;-73
2024/02/29 01:18:43;;;;;;;15.38;10.30;;;6.00;99.90;;;;;;2068398;28;20436;-72
2024/02/29 01:19:44;;;;;;;15.25;10.50;;;6.00;99.90;;;;;;2069353;28;20101;-72
2024/02/29 01:20:44;;;;;;;14.75;10.23;;;6.00;99.90;;;;;;2074188;28;20534;-72
2024/02/29 01:21:45;;;;;;;15.73;10.18;;;6.10;99.90;;;;;;2075707;28;20064;-71
2024/02/29 01:22:45;;;;;;;14.98;10.65;;;6.10;99.90;;;;;;2077443;28;20026;-72
2024/02/29 01:23:46;;;;;;;14.57;9.88;;;6.10;99.90;;;;;;2076299;28;20022;-72
2024/02/29 01:24:46;;;;;;;13.40;9.73;;;6.10;99.90;;;;;;2074451;28;20030;-72
2024/02/29 01:25:47;;;;;;;15.43;10.13;;;6.10;99.90;;;;;;2077345;28;20101;-72
2024/02/29 01:26:47;;;;;;;16.90;10.45;;;6.10;99.90;;;;;;2077200;28;20038;-73
2024/02/29 01:27:48;;;;;;;15.43;9.95;;;6.10;99.90;;;;;;2076376;28;20669;-70
2024/02/29 01:28:48;;;;;;;13.85;9.48;;;6.20;99.90;;;;;;2075117;28;20124;-73
2024/02/29 01:29:49;;;;;;;15.10;10.57;;;6.20;99.90;;;;;;2074243;28;20037;-72
2024/02/29 01:30:50;;;;;;;16.42;10.60;;;6.20;99.90;;;;;;2074734;28;20120;-72
2024/02/29 01:31:50;;;;;;;14.48;10.23;;;6.20;99.90;;;;;;2077528;28;20028;-73
2024/02/29 01:32:51;;;;;;;15.65;10.15;;;6.20;99.90;;;;;;2077480;28;20018;-72
2024/02/29 01:33:51;;;;;;;17.00;11.35;;;6.20;99.90;;;;;;2076513;28;20057;-73
2024/02/29 01:34:52;;;;;;;14.45;10.48;;;6.20;99.90;;;;;;2075683;28;20046;-72
2024/02/29 01:35:52;;;;;;;13.48;9.18;;;6.20;99.90;;;;;;2069655;28;20041;-73
2024/02/29 01:36:53;;;;;;;14.75;9.88;;;6.20;99.90;;;;;;2067369;28;20129;-71
2024/02/29 01:37:53;;;;;;;13.75;9.80;;;6.30;99.90;;;;;;2077205;28;20025;-72
2024/02/29 01:38:54;;;;;;;15.50;10.30;;;6.20;99.90;;;;;;2076648;28;20049;-72
2024/02/29 01:39:54;;;;;;;12.85;9.63;;;6.30;99.90;;;;;;2077648;28;20045;-72
2024/02/29 01:40:55;;;;;;;14.50;10.02;;;6.30;99.90;;;;;;2076942;28;20026;-70
2024/02/29 01:41:56;;;;;;;14.30;10.70;;;6.30;99.90;;;;;;2077795;28;20119;-72
2024/02/29 01:42:57;;;;;;;13.27;9.65;;;6.30;99.90;;;;;;2075824;28;20026;-72
2024/02/29 01:43:57;;;;;;;14.95;9.82;;;6.20;99.90;;;;;;2076459;28;20035;-73
2024/02/29 01:44:58;;;;;;;11.75;8.77;;;6.30;99.90;;;;;;2074419;28;20034;-73
2024/02/29 01:46:12;;;;;;;12.80;9.23;;;6.30;99.90;;;;;;2075959;28;20102;-72
2024/02/29 01:47:13;;;;;;;14.90;9.30;;;6.20;99.90;;;;;;2075446;28;20025;-73
2024/02/29 01:48:14;;;;;;;14.77;9.90;;;6.30;99.90;;;;;;2075587;28;20080;-72
2024/02/29 01:49:16;;;;;;;13.80;9.25;;;6.30;99.90;;;;;;2074181;28;20021;-73
2024/02/29 01:50:17;;;;;;;13.63;9.52;;;6.30;99.90;;;;;;2077483;28;20052;-73
2024/02/29 01:51:19;;;;;;;11.73;9.30;;;6.30;99.90;;;;;;2075566;28;20018;-73
2024/02/29 01:52:21;;;;;;;16.23;10.75;;;6.30;99.90;;;;;;2076776;28;20378;-72
2024/02/29 01:53:22;;;;;;;12.50;9.23;;;6.30;99.90;;;;;;2075014;28;20033;-72
2024/02/29 01:54:22;;;;;;;14.63;10.23;;;6.30;99.90;;;;;;2075401;28;20037;-73
2024/02/29 01:55:23;;;;;;;14.52;9.73;;;6.30;99.90;;;;;;2075344;28;20367;-72
2024/02/29 01:56:25;;;;;;;14.13;10.10;;;6.30;99.90;;;;;;2073766;28;20026;-72
2024/02/29 01:57:26;;;;;;;16.27;10.38;;;6.30;99.90;;;;;;2073966;28;20052;-72
2024/02/29 01:58:27;;;;;;;15.15;10.25;;;6.30;99.90;;;;;;2074234;28;20105;-73
2024/02/29 01:59:28;;;;;;;14.07;9.85;;;6.30;99.90;;;;;;2074401;28;20041;-72
2024/02/29 02:00:29;;;;;;;13.38;9.85;;;6.30;99.90;;;;;;2076317;28;20605;-72
2024/02/29 02:01:29;;;;;;;13.50;9.68;;;6.30;99.90;;;;;;2068573;28;20426;-73
2024/02/29 02:02:30;;;;;;;11.95;9.23;;;6.30;99.90;;;;;;2068875;28;20033;-72
2024/02/29 02:03:31;;;;;;;13.00;9.73;;;6.30;99.90;;;;;;2068367;28;20148;-69
2024/02/29 02:04:32;;;;;;;15.93;10.10;;;6.30;99.90;;;;;;2076040;28;20017;-73
2024/02/29 02:05:32;;;;;;;14.02;9.93;;;6.30;99.90;;;;;;2074867;28;20104;-72
2024/02/29 02:06:33;;;;;;;15.43;9.65;;;6.30;99.90;;;;;;2075466;28;20087;-71
2024/02/29 02:07:37;;;;;;;11.98;9.13;;;6.30;99.90;;;;;;2068188;28;20036;-72
2024/02/29 02:08:37;;;;;;;12.98;9.20;;;6.30;99.90;;;;;;2067523;28;20367;-72
2024/02/29 02:09:41;;;;;;;13.50;9.90;;;6.30;99.90;;;;;;2077437;28;20124;-72
2024/02/29 02:10:41;;;;;;;13.23;9.82;;;6.30;99.90;;;;;;2076314;28;20030;-72
2024/02/29 02:11:42;;;;;;;13.88;10.32;;;6.30;99.90;;;;;;2073233;28;20488;-72
2024/02/29 02:12:42;;;;;;;14.15;9.35;;;6.30;99.90;;;;;;2077214;28;20097;-72
2024/02/29 02:13:43;;;;;;;14.57;9.50;;;6.30;99.90;;;;;;2073229;28;20049;-72
2024/02/29 02:14:44;;;;;;;13.55;9.60;;;6.30;99.90;;;;;;2076119;28;20025;-72
2024/02/29 02:15:44;;;;;;;13.50;9.75;;;6.30;99.90;;;;;;2074513;28;20033;-73
2024/02/29 02:16:45;;;;;;;13.48;9.35;;;6.30;99.90;;;;;;2076014;28;20034;-70
2024/02/29 02:17:47;;;;;;;12.60;8.98;;;6.30;99.90;;;;;;2075999;28;20045;-72
2024/02/29 02:18:47;;;;;;;13.48;9.75;;;6.30;99.90;;;;;;2076482;28;20036;-73
2024/02/29 02:19:49;;;;;;;13.82;8.68;;;6.30;99.90;;;;;;2077142;28;20520;-72
2024/02/29 02:20:49;;;;;;;13.20;10.05;;;6.30;99.90;;;;;;2077077;28;20057;-72
2024/02/29 02:21:50;;;;;;;13.63;10.15;;;6.30;99.90;;;;;;2074409;28;20057;-72
2024/02/29 02:22:50;;;;;;;12.57;9.93;;;6.30;99.90;;;;;;2075875;28;20131;-72
2024/02/29 02:23:51;;;;;;;14.52;9.77;;;6.30;99.90;;;;;;2074478;28;20037;-70
2024/02/29 02:24:51;;;;;;;13.02;9.43;;;6.30;99.90;;;;;;2076476;28;20117;-73
2024/02/29 02:25:57;;;;;;;12.45;8.93;;;6.30;99.90;;;;;;2076141;28;20100;-66
2024/02/29 02:26:58;;;;;;;12.27;8.88;;;6.30;99.90;;;;;;2075267;28;20386;-66
2024/02/29 02:27:58;;;;;;;13.38;9.43;;;6.30;99.90;;;;;;2076207;28;20017;-65
2024/02/29 02:29:06;;;;;;;11.95;9.63;;;6.30;99.90;;;;;;2078936;28;20030;-67
2024/02/29 02:30:07;;;;;;;14.32;9.90;;;6.30;99.90;;;;;;2067098;28;20022;-66
2024/02/29 02:31:07;;;;;;;13.38;9.60;;;6.30;99.90;;;;;;2067003;28;20034;-66
2024/02/29 02:32:08;;;;;;;14.15;9.40;;;6.30;99.90;;;;;;2075612;28;20034;-65
2024/02/29 02:33:12;;;;;;;14.65;9.77;;;6.30;99.90;;;;;;2075920;28;20049;-66
2024/02/29 02:34:13;;;;;;;11.80;9.02;;;6.30;99.90;;;;;;2077002;28;20034;-66
2024/02/29 02:35:14;;;;;;;12.85;8.77;;;6.30;99.90;;;;;;2077544;28;20076;-67
2024/02/29 02:36:14;;;;;;;14.63;9.20;;;6.30;99.90;;;;;;2075252;28;20073;-66
2024/02/29 02:37:15;;;;;;;13.05;9.48;;;6.30;99.90;;;;;;2075069;28;20053;-65
2024/02/29 02:38:15;;;;;;;12.70;9.50;;;6.30;99.90;;;;;;2075809;28;20095;-66
2024/02/29 02:39:16;;;;;;;12.63;8.43;;;6.30;99.90;;;;;;2074364;28;20180;-65
2024/02/29 02:40:17;;;;;;;13.93;8.93;;;6.30;99.90;;;;;;2074485;28;20478;-66
2024/02/29 02:41:18;;;;;;;14.90;10.50;;;6.30;99.90;;;;;;2075455;28;20025;-67
2024/02/29 02:42:18;;;;;;;13.05;9.70;;;6.20;99.90;;;;;;2074407;28;20030;-66
2024/02/29 02:43:19;;;;;;;13.23;9.90;;;6.30;99.90;;;;;;2076165;28;20033;-67
2024/02/29 02:44:20;;;;;;;12.95;9.80;;;6.30;99.90;;;;;;2076822;28;20022;-66
2024/02/29 02:45:20;;;;;;;11.35;8.50;;;6.30;99.90;;;;;;2078440;28;20092;-66
2024/02/29 02:46:21;;;;;;;13.27;9.20;;;6.30;99.90;;;;;;2078163;28;20097;-66
2024/02/29 02:47:21;;;;;;;11.95;8.75;;;6.30;99.90;;;;;;2077566;28;20022;-66
2024/02/29 02:48:22;;;;;;;15.30;9.40;;;6.30;99.90;;;;;;2076014;28;20025;-66
2024/02/29 02:49:22;;;;;;;13.32;8.80;;;6.30;99.90;;;;;;2077454;28;20044;-66
2024/02/29 02:50:24;;;;;;;13.57;9.20;;;6.30;99.90;;;;;;2077037;28;20025;-66
2024/02/29 02:51:26;;;;;;;12.95;8.75;;;6.30;99.90;;;;;;2078427;28;20538;-66
2024/02/29 02:52:26;;;;;;;14.10;9.27;;;6.30;99.90;;;;;;2077486;28;20021;-67
2024/02/29 02:53:27;;;;;;;15.18;9.13;;;6.20;99.90;;;;;;2079348;28;20026;-66
2024/02/29 02:54:27;;;;;;;11.98;8.85;;;6.30;99.90;;;;;;2076261;28;20505;-66
2024/02/29 02:55:28;;;;;;;11.70;8.88;;;6.30;99.90;;;;;;2080307;28;20147;-66
2024/02/29 02:56:28;;;;;;;14.93;9.85;;;6.20;99.90;;;;;;2075914;28;20030;-66
2024/02/29 02:57:29;;;;;;;12.90;9.38;;;6.20;99.90;;;;;;2078160;28;20061;-66
2024/02/29 02:58:30;;;;;;;12.32;9.00;;;6.20;99.90;;;;;;2078267;28;20026;-66
2024/02/29 02:59:30;;;;;;;14.57;9.30;;;6.20;99.90;;;;;;2077425;28;20040;-67
2024/02/29 03:00:31;;;;;;;13.20;9.55;;;6.20;99.90;;;;;;2077865;28;20042;-66
2024/02/29 03:01:32;;;;;;;15.55;9.20;;;6.20;99.90;;;;;;2077140;28;20504;-66
2024/02/29 03:02:33;;;;;;;11.88;9.02;;;6.20;99.90;;;;;;2076108;28;20030;-66
2024/02/29 03:03:33;;;;;;;14.52;9.73;;;6.20;99.90;;;;;;2079007;28;20026;-66
2024/02/29 03:04:34;;;;;;;11.48;9.27;;;6.20;99.90;;;;;;2074747;28;20494;-66
2024/02/29 03:05:34;;;;;;;13.40;9.32;;;6.20;99.90;;;;;;2068158;28;20033;-65
2024/02/29 03:06:35;;;;;;;13.55;9.48;;;6.20;99.90;;;;;;2070476;28;20030;-66
2024/02/29 03:07:38;;;;;;;13.35;9.18;;;6.20;99.90;;;;;;2075065;28;20105;-66
2024/02/29 03:08:38;;;;;;;12.13;9.18;;;6.20;99.90;;;;;;2076667;28;20096;-67
2024/02/29 03:09:39;;;;;;;13.80;9.32;;;6.20;99.90;;;;;;2077313;28;20033;-66
2024/02/29 03:10:40;;;;;;;12.88;9.15;;;6.20;99.90;;;;;;2074847;28;20547;-66
2024/02/29 03:11:40;;;;;;;12.80;9.10;;;6.20;99.90;;;;;;2068822;28;20029;-65
2024/02/29 03:12:41;;;;;;;11.30;8.68;;;6.20;99.90;;;;;;2068997;28;20033;-66
2024/02/29 03:13:41;;;;;;;12.27;8.90;;;6.10;99.90;;;;;;2077727;28;20109;-66
2024/02/29 03:14:43;;;;;;;11.52;9.30;;;6.20;99.90;;;;;;2076738;28;21100;-66
2024/02/29 03:15:43;;;;;;;11.52;8.50;;;6.20;99.90;;;;;;2075765;28;20400;-65
2024/02/29 03:16:44;;;;;;;14.70;9.30;;;6.20;99.90;;;;;;2077091;28;20044;-66
2024/02/29 03:17:44;;;;;;;13.55;9.50;;;6.10;99.90;;;;;;2078121;28;20032;-72
2024/02/29 03:18:45;;;;;;;11.40;8.63;;;6.20;99.90;;;;;;2078865;28;20192;-72
2024/02/29 03:19:45;;;;;;;13.30;9.50;;;6.10;99.90;;;;;;2076351;28;20044;-70
2024/02/29 03:20:46;;;;;;;14.98;9.15;;;6.10;99.90;;;;;;2077852;28;20418;-71
2024/02/29 03:21:46;;;;;;;12.95;9.27;;;6.10;99.90;;;;;;2079116;28;20040;-70
2024/02/29 03:22:47;;;;;;;13.77;9.25;;;6.10;99.90;;;;;;2078485;28;20132;-72
2024/02/29 03:23:47;;;;;;;13.43;9.45;;;6.10;99.90;;;;;;2079037;28;20030;-72
2024/02/29 03:24:48;;;;;;;12.98;9.70;;;6.10;99.90;;;;;;2076577;28;20038;-72
2024/02/29 03:25:48;;;;;;;14.57;9.70;;;6.10;99.90;;;;;;2076803;28;20512;-72
2024/02/29 03:26:49;;;;;;;13.57;9.40;;;6.10;99.90;;;;;;2075779;28;20026;-73
2024/02/29 03:27:51;;;;;;;13.60;9.07;;;6.10;99.90;;;;;;2078350;28;20021;-72
2024/02/29 03:28:52;;;;;;;14.05;9.95;;;6.10;99.90;;;;;;2076246;28;20044;-72
2024/02/29 03:29:52;;;;;;;13.13;8.80;;;6.10;99.90;;;;;;2076632;28;20036;-72
2024/02/29 03:30:53;;;;;;;15.93;9.75;;;6.10;99.90;;;;;;2077672;28;20125;-72
2024/02/29 03:31:53;;;;;;;13.65;9.45;;;6.10;99.90;;;;;;2076545;28;20026;-73
2024/02/29 03:32:55;;;;;;;12.60;9.60;;;6.10;99.90;;;;;;2077704;28;20235;-72
2024/02/29 03:33:56;;;;;;;12.93;8.95;;;6.10;99.80;;;;;;2077459;28;20025;-72
2024/02/29 03:34:57;;;;;;;13.40;8.82;;;6.10;99.80;;;;;;2075808;28;20498;-73
2024/02/29 03:35:57;;;;;;;13.30;9.25;;;6.10;99.80;;;;;;2077306;28;20414;-72
2024/02/29 03:36:58;;;;;;;13.77;9.27;;;6.10;99.80;;;;;;2074693;28;20029;-72
2024/02/29 03:37:58;;;;;;;13.38;9.32;;;6.10;99.80;;;;;;2074245;28;20105;-73
2024/02/29 03:38:59;;;;;;;12.82;8.95;;;6.10;99.60;;;;;;2076416;28;20572;-72
2024/02/29 03:39:59;;;;;;;13.45;9.95;;;6.10;99.60;;;;;;2075833;28;20084;-72
2024/02/29 03:41:00;;;;;;;13.82;9.57;;;6.10;99.60;;;;;;2078809;28;20124;-72
2024/02/29 03:42:01;;;;;;;13.30;8.70;;;6.10;99.60;;;;;;2076344;28;20025;-72
2024/02/29 03:43:02;;;;;;;11.60;9.18;;;6.10;99.50;;;;;;2076031;28;20112;-72
2024/02/29 03:44:02;;;;;;;13.07;9.85;;;6.10;99.50;;;;;;2075700;28;20108;-73
2024/02/29 03:45:03;;;;;;;14.23;10.00;;;6.10;99.50;;;;;;2077952;28;20457;-71
2024/02/29 03:46:04;;;;;;;14.13;9.52;;;6.10;99.30;;;;;;2077961;28;20061;-72
2024/02/29 03:47:04;;;;;;;14.32;9.82;;;6.10;99.20;;;;;;2077221;28;20053;-72
2024/02/29 03:48:05;;;;;;;12.95;10.23;;;6.10;99.20;;;;;;2077736;28;20033;-72
2024/02/29 03:49:06;;;;;;;13.00;9.32;;;6.10;99.10;;;;;;2076576;28;20065;-72
2024/02/29 03:50:10;;;;;;;14.80;9.73;;;6.10;99.10;;;;;;2076442;28;20025;-72
2024/02/29 03:51:10;;;;;;;13.93;10.05;;;6.00;98.90;;;;;;2077528;28;20617;-73
2024/02/29 03:52:11;;;;;;;14.02;9.75;;;6.10;99.10;;;;;;2079089;28;20044;-72
2024/02/29 03:53:11;;;;;;;14.82;10.02;;;6.10;99.10;;;;;;2077515;28;20022;-72
2024/02/29 03:54:12;;;;;;;14.13;9.90;;;6.10;99.10;;;;;;2077367;28;20502;-72
2024/02/29 03:55:13;;;;;;;15.88;10.45;;;6.10;99.10;;;;;;2076895;28;20389;-72
2024/02/29 03:56:13;;;;;;;14.60;10.18;;;6.10;98.90;;;;;;2077196;28;20017;-72
2024/02/29 03:57:14;;;;;;;14.10;9.68;;;6.10;98.80;;;;;;2076004;28;20436;-72
2024/02/29 03:58:15;;;;;;;14.57;10.07;;;6.10;98.80;;;;;;2076000;28;20018;-72
2024/02/29 03:59:16;;;;;;;13.98;10.07;;;6.10;98.80;;;;;;2075095;28;20056;-72
2024/02/29 04:00:17;;;;;;;14.30;10.05;;;6.10;98.80;;;;;;2076138;28;20029;-72
2024/02/29 04:01:18;;;;;;;16.40;10.38;;;6.10;98.70;;;;;;2076052;28;20061;-72
2024/02/29 04:02:19;;;;;;;13.48;9.88;;;6.10;98.70;;;;;;2077020;28;20488;-72
2024/02/29 04:03:19;;;;;;;13.55;9.50;;;6.10;98.70;;;;;;2075102;28;20022;-72
2024/02/29 04:04:20;;;;;;;14.73;8.95;;;6.10;98.60;;;;;;2076524;28;20018;-72
2024/02/29 04:05:24;;;;;;;13.82;9.98;;;6.10;98.50;;;;;;2076725;28;20021;-72
2024/02/29 04:06:24;;;;;;;14.55;9.50;;;6.10;98.40;;;;;;2077092;28;20037;-72
2024/02/29 04:07:25;;;;;;;15.70;10.07;;;6.10;98.40;;;;;;2075182;28;20055;-72
2024/02/29 04:08:25;;;;;;;14.40;9.98;;;6.10;98.40;;;;;;2076988;28;20454;-72
2024/02/29 04:09:26;;;;;;;14.30;9.82;;;6.10;98.40;;;;;;2077352;28;20025;-72
2024/02/29 04:10:30;;;;;;;14.57;10.05;;;6.10;98.40;;;;;;2077007;28;20113;-73
2024/02/29 04:11:30;;;;;;;12.70;9.30;;;6.10;98.40;;;;;;2074508;28;20037;-71
2024/02/29 04:12:31;;;;;;;15.40;10.00;;;6.10;98.30;;;;;;2076610;28;20109;-72
2024/02/29 04:13:31;;;;;;;14.77;10.05;;;6.10;98.20;;;;;;2075764;28;20024;-72
2024/02/29 04:14:38;;;;;;;13.18;9.48;;;6.10;98.20;;;;;;2078099;28;20417;-72
2024/02/29 04:15:38;;;;;;;18.08;10.63;;;6.10;98.20;;;;;;2076712;28;20121;-71
2024/02/29 04:16:39;;;;;;;14.75;9.55;;;6.10;98.20;;;;;;2074410;28;20049;-72
2024/02/29 04:17:39;;;;;;;13.70;9.65;;;6.10;98.20;;;;;;2074927;28;20490;-72
2024/02/29 04:18:40;;;;;;;12.85;9.63;;;6.10;98.20;;;;;;2076335;28;20077;-72
2024/02/29 04:19:41;;;;;;;12.75;9.68;;;6.10;98.20;;;;;;2075918;28;20477;-72
2024/02/29 04:20:42;;;;;;;12.68;9.48;;;6.10;98.10;;;;;;2078582;28;20124;-73
2024/02/29 04:21:46;;;;;;;15.27;10.02;;;6.10;98.00;;;;;;2075862;28;20084;-72
2024/02/29 04:22:46;;;;;;;17.30;10.57;;;6.10;97.80;;;;;;2074963;28;20030;-73
2024/02/29 04:23:47;;;;;;;12.27;9.23;;;6.10;97.80;;;;;;2074555;28;20144;-72
2024/02/29 04:24:47;;;;;;;13.55;10.63;;;6.10;97.80;;;;;;2078376;28;20100;-72
2024/02/29 04:25:48;;;;;;;14.50;9.82;;;6.10;97.80;;;;;;2077002;28;20038;-72
2024/02/29 04:26:48;;;;;;;15.07;9.68;;;6.10;97.70;;;;;;2078330;28;20182;-72
2024/02/29 04:27:50;;;;;;;13.88;9.27;;;6.10;97.60;;;;;;2076059;28;20096;-70
2024/02/29 04:28:51;;;;;;;15.70;10.68;;;6.10;97.70;;;;;;2076598;28;20101;-72
2024/02/29 04:29:51;;;;;;;12.10;9.07;;;6.10;97.70;;;;;;2074839;28;20038;-72
2024/02/29 04:30:52;;;;;;;13.45;9.63;;;6.10;97.70;;;;;;2074553;28;20374;-72
2024/02/29 04:31:52;;;;;;;13.77;9.45;;;6.10;97.60;;;;;;2078293;28;20021;-71
2024/02/29 04:32:53;;;;;;;14.07;10.13;;;6.10;97.60;;;;;;2075998;28;20030;-72
2024/02/29 04:33:53;;;;;;;13.63;9.82;;;6.10;97.70;;;;;;2075948;28;20032;-73
2024/02/29 04:34:54;;;;;;;13.32;9.77;;;6.10;97.70;;;;;;2072622;28;20026;-72
2024/02/29 04:35:54;;;;;;;14.45;9.40;;;6.10;97.70;;;;;;2062469;28;20026;-72
2024/02/29 04:36:55;;;;;;;14.38;9.25;;;6.10;97.50;;;;;;2067683;28;20997;-72
2024/02/29 04:37:55;;;;;;;13.75;9.80;;;6.10;97.40;;;;;;2071129;28;20461;-73
2024/02/29 04:38:56;;;;;;;16.17;10.75;;;6.10;97.40;;;;;;2069266;28;20026;-72
2024/02/29 04:39:56;;;;;;;15.98;9.77;;;6.10;97.40;;;;;;2077893;28;20068;-72
2024/02/29 04:40:57;;;;;;;14.90;9.80;;;6.10;97.40;;;;;;2073801;28;20080;-72
2024/02/29 04:41:57;;;;;;;12.88;9.18;;;6.10;97.20;;;;;;2076908;28;20057;-72
2024/02/29 04:42:58;;;;;;;13.00;8.85;;;6.10;97.20;;;;;;2076683;28;20113;-73
2024/02/29 04:43:59;;;;;;;13.65;9.73;;;6.10;97.10;;;;;;2076319;28;20032;-72
2024/02/29 04:44:59;;;;;;;15.05;9.80;;;6.10;97.20;;;;;;2070189;28;20060;-73
2024/02/29 04:46:01;;;;;;;15.27;10.02;;;6.10;97.20;;;;;;2067148;28;20545;-73
2024/02/29 04:47:01;;;;;;;13.90;9.10;;;6.10;97.20;;;;;;2068556;28;20462;-72
2024/02/29 04:48:02;;;;;;;15.57;10.32;;;6.10;97.20;;;;;;2069183;28;20060;-72
2024/02/29 04:49:04;;;;;;;13.95;9.07;;;6.10;97.10;;;;;;2076120;28;20033;-72
2024/02/29 04:50:04;;;;;;;13.25;8.93;;;6.10;97.10;;;;;;2076024;28;20037;-71
2024/02/29 04:51:05;;;;;;;13.00;9.50;;;6.10;97.10;;;;;;2076810;28;20124;-72
2024/02/29 04:52:07;;;;;;;14.40;9.35;;;6.10;97.00;;;;;;2076400;28;20367;-72
2024/02/29 04:53:07;;;;;;;13.65;9.25;;;6.10;96.90;;;;;;2077804;28;20570;-72
2024/02/29 04:54:08;;;;;;;17.85;9.60;;;6.10;96.80;;;;;;2078062;28;20493;-72
2024/02/29 04:55:09;;;;;;;15.25;9.27;;;6.10;97.10;;;;;;2077154;28;20097;-72
2024/02/29 04:56:09;;;;;;;13.38;9.35;;;6.10;96.80;;;;;;2077980;28;20026;-72
2024/02/29 04:57:10;;;;;;;14.43;9.63;;;6.10;96.90;;;;;;2077694;28;20185;-72
2024/02/29 04:58:10;;;;;;;14.10;9.10;;;6.10;96.80;;;;;;2076094;28;20433;-70
2024/02/29 04:59:11;;;;;;;13.07;9.25;;;6.10;96.70;;;;;;2078604;28;20143;-73
2024/02/29 05:00:13;;;;;;;15.80;9.73;;;6.10;96.70;;;;;;2076138;28;20014;-72
2024/02/29 05:01:13;;;;;;;14.73;10.02;;;6.10;96.60;;;;;;2077516;28;20045;-72
2024/02/29 05:02:14;;;;;;;14.07;9.32;;;6.10;96.50;;;;;;2074164;28;20018;-72
2024/02/29 05:03:14;;;;;;;12.52;8.98;;;6.10;96.50;;;;;;2075135;28;20108;-72
2024/02/29 05:04:15;;;;;;;15.77;9.90;;;6.10;96.60;;;;;;2077841;28;20034;-72
2024/02/29 05:05:15;;;;;;;13.60;9.27;;;6.10;96.60;;;;;;2075603;28;20695;-72
2024/02/29 05:06:16;;;;;;;12.63;9.63;;;6.10;96.20;;;;;;2074292;28;20491;-72
2024/02/29 05:07:16;;;;;;;13.60;9.02;;;6.10;96.40;;;;;;2076616;28;20681;-72
2024/02/29 05:08:17;;;;;;;12.48;8.85;;;6.10;96.50;;;;;;2068468;28;20021;-73
2024/02/29 05:09:17;;;;;;;13.07;9.07;;;6.10;96.50;;;;;;2070295;28;20507;-72
2024/02/29 05:10:18;;;;;;;16.17;10.05;;;6.10;96.60;;;;;;2074320;28;20032;-72
2024/02/29 05:11:18;;;;;;;14.02;9.75;;;6.00;95.90;;;;;;2075001;28;20017;-72
2024/02/29 05:12:22;;;;;;;15.00;9.88;;;6.10;96.10;;;;;;2077209;28;20033;-72
2024/02/29 05:13:22;;;;;;;16.17;10.93;;;6.10;96.00;;;;;;2076127;28;20026;-72
2024/02/29 05:14:23;;;;;;;13.82;9.50;;;6.10;95.90;;;;;;2076155;28;20030;-72
2024/02/29 05:15:24;;;;;;;14.60;9.55;;;6.10;95.90;;;;;;2076554;28;20877;-72